createdAt,value
2018-09-20T00:56:24.441Z,22.9
2018-09-20T00:57:14.652Z,23
2018-09-20T00:58:03.577Z,23
2018-09-20T00:58:54.431Z,23
2018-09-20T00:59:44.246Z,23.1
2018-09-20T01:00:35.511Z,23.1
2018-09-20T01:01:24.602Z,23.1
2018-09-20T01:02:14.392Z,23.1
2018-09-20T01:03:05.111Z,23
2018-09-20T01:03:54.217Z,23.1
2018-09-20T01:04:44.353Z,23
2018-09-20T01:05:34.680Z,23.1
2018-09-20T01:06:25.587Z,23
2018-09-20T01:07:14.284Z,23
2018-09-20T01:08:05.179Z,23.1
2018-09-20T01:08:54.880Z,23
2018-09-20T01:09:44.949Z,23
2018-09-20T01:10:35.032Z,23.1
2018-09-20T01:11:24.774Z,23
2018-09-20T01:12:15.429Z,23
2018-09-20T01:13:06.017Z,23
2018-09-20T01:13:55.001Z,23
2018-09-20T01:14:45.956Z,23.1
2018-09-20T01:15:35.644Z,23
2018-09-20T01:16:25.181Z,23.1
2018-09-20T01:17:15.812Z,23
2018-09-20T01:18:06.171Z,23.1
2018-09-20T01:18:54.801Z,23.1
2018-09-20T01:19:45.191Z,23
2018-09-20T01:20:35.767Z,23
2018-09-20T01:21:25.925Z,23.1
2018-09-20T01:22:15.361Z,23
2018-09-20T01:23:04.871Z,23.1
2018-09-20T01:23:55.239Z,23.1
2018-09-20T01:24:45.907Z,23
2018-09-20T01:25:35.208Z,23.1
2018-09-20T01:26:25.526Z,23
2018-09-20T01:27:16.061Z,23
2018-09-20T01:28:05.709Z,23.1
2018-09-20T01:28:56.246Z,23
2018-09-20T01:29:46.519Z,23
2018-09-20T01:30:36.498Z,23
2018-09-20T01:31:26.940Z,23.1
2018-09-20T01:32:17.031Z,23
2018-09-20T01:33:05.996Z,23
2018-09-20T01:33:57.130Z,23
2018-09-20T01:34:46.634Z,23
2018-09-20T01:35:38.568Z,23
2018-09-20T01:36:26.589Z,23
2018-09-20T01:37:17.566Z,23.1
2018-09-20T01:38:06.598Z,23
2018-09-20T01:38:56.350Z,23
2018-09-20T01:39:46.953Z,23
2018-09-20T01:40:37.281Z,23
2018-09-20T01:41:26.340Z,23
2018-09-20T01:42:16.657Z,23
2018-09-20T01:43:07.263Z,23.1
2018-09-20T01:43:57.597Z,23
2018-09-20T01:44:47.400Z,23
2018-09-20T01:45:37.688Z,23
2018-09-20T01:46:27.998Z,23
2018-09-20T01:47:17.830Z,23
2018-09-20T01:48:06.983Z,23
2018-09-20T01:48:57.653Z,22.9
2018-09-20T01:49:47.960Z,23
2018-09-20T01:50:37.785Z,23
2018-09-20T01:51:28.407Z,23
2018-09-20T01:52:18.049Z,22.9
2018-09-20T01:53:08.247Z,23
2018-09-20T01:53:58.849Z,22.9
2018-09-20T01:54:48.102Z,23
2018-09-20T01:55:38.650Z,23
2018-09-20T01:56:28.989Z,23
2018-09-20T01:57:19.552Z,23
2018-09-20T01:58:08.549Z,23
2018-09-20T01:58:59.199Z,23
2018-09-20T01:59:48.154Z,23
2018-09-20T02:00:39.014Z,23
2018-09-20T02:01:28.294Z,23
2018-09-20T02:02:18.613Z,23
2018-09-20T02:03:08.119Z,23
2018-09-20T02:03:59.429Z,23
2018-09-20T02:04:48.510Z,23
2018-09-20T02:05:38.858Z,22.9
2018-09-20T02:06:29.462Z,23
2018-09-20T02:07:19.871Z,23
2018-09-20T02:08:09.046Z,23
2018-09-20T02:08:59.684Z,23
2018-09-20T02:09:49.720Z,23
2018-09-20T02:10:39.796Z,23
2018-09-20T02:11:29.259Z,23
2018-09-20T02:12:19.916Z,22.9
2018-09-20T02:13:09.665Z,23
2018-09-20T02:13:59.751Z,23
2018-09-20T02:14:49.538Z,22.9
2018-09-20T02:15:39.878Z,23
2018-09-20T02:16:29.904Z,23
2018-09-20T02:17:20.575Z,23
2018-09-20T02:18:10.033Z,22.9
2018-09-20T02:18:59.613Z,23
2018-09-20T02:19:50.740Z,22.9
2018-09-20T02:20:40.595Z,22.9
2018-09-20T02:21:30.560Z,23
2018-09-20T02:22:19.242Z,22.9
2018-09-20T02:23:10.528Z,23
2018-09-20T02:23:59.985Z,22.9
2018-09-20T02:24:50.062Z,22.9
2018-09-20T02:25:40.405Z,22.9
2018-09-20T02:26:30.945Z,22.9
2018-09-20T02:27:21.120Z,23
2018-09-20T02:28:10.852Z,22.9
2018-09-20T02:29:00.609Z,23
2018-09-20T02:29:51.475Z,23
2018-09-20T02:30:41.104Z,22.9
2018-09-20T02:31:31.324Z,22.9
2018-09-20T02:32:20.877Z,22.9
2018-09-20T02:33:12.373Z,22.9
2018-09-20T02:34:01.095Z,22.9
2018-09-20T02:34:51.070Z,22.9
2018-09-20T02:35:41.709Z,22.9
2018-09-20T02:36:31.774Z,22.9
2018-09-20T02:37:21.839Z,22.9
2018-09-20T02:38:11.848Z,22.9
2018-09-20T02:39:01.629Z,22.9
2018-09-20T02:39:52.052Z,22.9
2018-09-20T02:40:41.585Z,22.9
2018-09-20T02:41:31.824Z,22.9
2018-09-20T02:42:21.917Z,22.9
2018-09-20T02:43:10.765Z,22.9
2018-09-20T02:44:02.181Z,22.9
2018-09-20T02:44:51.595Z,22.9
2018-09-20T02:45:42.404Z,22.9
2018-09-20T02:46:32.775Z,22.9
2018-09-20T02:47:22.206Z,22.9
2018-09-20T02:48:12.976Z,22.9
2018-09-20T02:49:02.701Z,22.9
2018-09-20T02:49:52.420Z,22.9
2018-09-20T02:50:42.594Z,22.9
2018-09-20T02:51:32.369Z,22.9
2018-09-20T02:52:21.782Z,22.9
2018-09-20T02:53:13.571Z,22.9
2018-09-20T02:54:03.069Z,22.9
2018-09-20T02:54:51.936Z,22.9
2018-09-20T02:55:43.256Z,22.9
2018-09-20T02:56:32.358Z,22.9
2018-09-20T02:57:22.726Z,22.9
2018-09-20T02:58:13.135Z,22.9
2018-09-20T02:59:05.444Z,22.9
2018-09-20T02:59:53.728Z,22.9
2018-09-20T03:00:42.460Z,22.9
2018-09-20T03:01:33.043Z,22.9
2018-09-20T03:02:23.648Z,22.9
2018-09-20T03:03:13.708Z,22.9
2018-09-20T03:04:04.108Z,22.9
2018-09-20T03:04:52.155Z,22.9
2018-09-20T03:05:43.040Z,22.9
2018-09-20T03:06:34.050Z,22.9
2018-09-20T03:07:23.469Z,22.9
2018-09-20T03:08:14.088Z,22.9
2018-09-20T03:09:02.707Z,22.9
2018-09-20T03:09:54.595Z,22.9
2018-09-20T03:10:43.717Z,22.9
2018-09-20T03:11:34.674Z,22.9
2018-09-20T03:12:23.279Z,22.9
2018-09-20T03:13:16.507Z,22.9
2018-09-20T03:14:04.519Z,22.9
2018-09-20T03:14:54.400Z,22.9
2018-09-20T03:15:44.142Z,22.9
2018-09-20T03:16:34.735Z,22.9
2018-09-20T03:17:25.112Z,22.9
2018-09-20T03:18:14.289Z,22.9
2018-09-20T03:19:05.557Z,22.9
2018-09-20T03:19:55.274Z,22.9
2018-09-20T03:20:44.986Z,22.9
2018-09-20T03:21:34.854Z,22.9
2018-09-20T03:22:24.267Z,22.9
2018-09-20T03:23:14.673Z,22.9
2018-09-20T03:24:05.337Z,22.9
2018-09-20T03:24:55.409Z,22.9
2018-09-20T03:25:46.032Z,22.9
2018-09-20T03:26:35.184Z,22.9
2018-09-20T03:27:24.976Z,22.9
2018-09-20T03:28:15.938Z,22.9
2018-09-20T03:29:05.110Z,22.9
2018-09-20T03:29:55.159Z,22.9
2018-09-20T03:30:50.262Z,22.9
2018-09-20T03:31:36.229Z,22.9
2018-09-20T03:32:26.094Z,22.9
2018-09-20T03:33:15.766Z,22.9
2018-09-20T03:34:05.764Z,22.8
2018-09-20T03:34:55.995Z,22.9
2018-09-20T03:35:46.971Z,22.9
2018-09-20T03:36:36.211Z,22.9
2018-09-20T03:37:26.351Z,22.9
2018-09-20T03:38:15.789Z,22.8
2018-09-20T03:39:06.507Z,22.9
2018-09-20T03:39:55.973Z,22.9
2018-09-20T03:40:46.795Z,22.9
2018-09-20T03:41:36.310Z,22.9
2018-09-20T03:42:26.363Z,22.9
2018-09-20T03:43:15.873Z,22.9
2018-09-20T03:44:05.505Z,22.9
2018-09-20T03:44:56.297Z,22.9
2018-09-20T03:45:46.662Z,22.9
2018-09-20T03:46:36.528Z,22.8
2018-09-20T03:47:26.870Z,22.9
2018-09-20T03:48:15.615Z,22.9
2018-09-20T03:49:04.479Z,22.9
2018-09-20T03:49:56.756Z,22.8
2018-09-20T03:50:45.525Z,22.9
2018-09-20T03:51:36.630Z,22.9
2018-09-20T03:52:25.722Z,22.8
2018-09-20T03:53:15.737Z,22.8
2018-09-20T03:54:06.182Z,22.8
2018-09-20T03:54:57.125Z,22.9
2018-09-20T03:55:47.984Z,22.9
2018-09-20T03:56:38.304Z,22.8
2018-09-20T03:57:26.974Z,22.8
2018-09-20T03:58:17.821Z,22.9
2018-09-20T03:59:06.546Z,22.8
2018-09-20T03:59:57.726Z,22.9
2018-09-20T04:00:47.262Z,22.8
2018-09-20T04:01:38.262Z,22.8
2018-09-20T04:02:28.159Z,22.9
2018-09-20T04:03:18.002Z,22.8
2018-09-20T04:04:08.091Z,22.8
2018-09-20T04:04:56.964Z,22.8
2018-09-20T04:05:47.939Z,22.8
2018-09-20T04:06:38.816Z,22.8
2018-09-20T04:07:28.749Z,22.8
2018-09-20T04:08:18.286Z,22.8
2018-09-20T04:09:07.801Z,22.8
2018-09-20T04:09:59.801Z,22.8
2018-09-20T04:10:48.476Z,22.8
2018-09-20T04:11:38.562Z,22.8
2018-09-20T04:12:28.639Z,22.8
2018-09-20T04:13:19.227Z,22.8
2018-09-20T04:14:08.707Z,22.8
2018-09-20T04:14:59.170Z,22.8
2018-09-20T04:15:48.907Z,22.9
2018-09-20T04:16:39.455Z,22.8
2018-09-20T04:17:29.247Z,22.8
2018-09-20T04:18:19.007Z,22.8
2018-09-20T04:19:09.075Z,22.8
2018-09-20T04:19:58.622Z,22.8
2018-09-20T04:20:49.537Z,22.8
2018-09-20T04:21:38.750Z,22.8
2018-09-20T04:22:28.531Z,22.8
2018-09-20T04:23:20.161Z,22.8
2018-09-20T04:24:09.456Z,22.8
2018-09-20T04:25:00.386Z,22.8
2018-09-20T04:25:49.629Z,22.8
2018-09-20T04:26:38.831Z,22.8
2018-09-20T04:27:29.987Z,22.8
2018-09-20T04:28:18.650Z,22.8
2018-09-20T04:29:09.834Z,22.8
2018-09-20T04:30:00.288Z,22.8
2018-09-20T04:30:49.472Z,22.8
2018-09-20T04:31:40.840Z,22.8
2018-09-20T04:32:30.198Z,22.8
2018-09-20T04:33:21.103Z,22.8
2018-09-20T04:34:09.716Z,22.8
2018-09-20T04:35:00.656Z,22.8
2018-09-20T04:35:51.058Z,22.8
2018-09-20T04:36:39.891Z,22.8
2018-09-20T04:37:30.882Z,22.9
2018-09-20T04:38:21.424Z,22.8
2018-09-20T04:39:11.183Z,22.8
2018-09-20T04:40:00.385Z,22.8
2018-09-20T04:40:50.385Z,22.8
2018-09-20T04:41:40.755Z,22.8
2018-09-20T04:42:31.426Z,22.8
2018-09-20T04:43:21.476Z,22.8
2018-09-20T04:44:10.397Z,22.8
2018-09-20T04:45:00.208Z,22.8
2018-09-20T04:45:51.818Z,22.8
2018-09-20T04:46:40.683Z,22.8
2018-09-20T04:47:31.796Z,22.8
2018-09-20T04:48:21.413Z,22.8
2018-09-20T04:49:10.785Z,22.8
2018-09-20T04:50:02.228Z,22.8
2018-09-20T04:50:51.134Z,22.7
2018-09-20T04:51:41.858Z,22.8
2018-09-20T04:52:32.095Z,22.8
2018-09-20T04:53:23.827Z,22.8
2018-09-20T04:54:11.773Z,22.8
2018-09-20T04:55:01.213Z,22.8
2018-09-20T04:55:51.841Z,22.8
2018-09-20T04:56:42.472Z,22.8
2018-09-20T04:57:31.735Z,22.8
2018-09-20T04:58:22.201Z,22.8
2018-09-20T04:59:12.700Z,22.8
2018-09-20T05:00:03.052Z,22.8
2018-09-20T05:00:52.783Z,22.8
2018-09-20T05:01:42.550Z,22.8
2018-09-20T05:02:31.756Z,22.8
2018-09-20T05:03:23.232Z,22.7
2018-09-20T05:04:12.185Z,22.8
2018-09-20T05:05:02.549Z,22.8
2018-09-20T05:05:52.590Z,22.8
2018-09-20T05:06:42.615Z,22.8
2018-09-20T05:07:32.660Z,22.8
2018-09-20T05:25:29.041Z,22.4
2018-09-20T05:26:18.798Z,22.6
2018-09-20T05:27:08.781Z,22.5
2018-09-20T05:27:58.598Z,22.5
2018-09-20T05:28:48.641Z,22.5
2018-09-20T05:29:38.807Z,22.6
2018-09-20T05:30:28.613Z,22.5
2018-09-20T05:31:18.278Z,22.6
2018-09-20T05:32:08.972Z,22.5
2018-09-20T05:32:58.191Z,22.6
2018-09-20T05:33:48.725Z,22.4
2018-09-20T05:34:38.633Z,22.5
2018-09-20T05:35:31.470Z,22.6
2018-09-20T05:36:18.623Z,22.5
2018-09-20T05:37:09.950Z,22.5
2018-09-20T05:37:59.380Z,22.5
2018-09-20T05:38:48.335Z,22.5
2018-09-20T05:39:40.065Z,22.4
2018-09-20T05:40:29.010Z,22.5
2018-09-20T05:41:19.645Z,22.4
2018-09-20T05:42:09.388Z,22.5
2018-09-20T05:42:59.452Z,22.5
2018-09-20T05:43:50.180Z,22.5
2018-09-20T05:44:40.407Z,22.5
2018-09-20T05:45:29.405Z,22.5
2018-09-20T05:46:20.442Z,22.5
2018-09-20T05:47:10.112Z,22.5
2018-09-20T05:47:59.834Z,22.5
2018-09-20T05:48:49.716Z,22.5
2018-09-20T05:49:39.489Z,22.5
2018-09-20T05:50:29.817Z,22.5
2018-09-20T05:51:20.541Z,22.4
2018-09-20T05:52:10.232Z,22.5
2018-09-20T05:53:00.242Z,22.5
2018-09-20T05:53:50.796Z,22.5
2018-09-20T05:54:41.612Z,22.4
2018-09-20T05:55:31.842Z,22.4
2018-09-20T05:56:20.907Z,22.5
2018-09-20T05:57:10.844Z,22.5
2018-09-20T05:58:01.269Z,22.5
2018-09-20T05:58:51.596Z,22.5
2018-09-20T05:59:41.049Z,22.5
2018-09-20T06:00:31.137Z,22.5
2018-09-20T06:01:21.356Z,22.5
2018-09-20T06:02:10.872Z,22.5
2018-09-20T06:03:01.609Z,22.5
2018-09-20T06:03:51.292Z,22.5
2018-09-20T06:04:41.509Z,22.5
2018-09-20T06:05:31.771Z,22.4
2018-09-20T06:06:21.796Z,22.5
2018-09-20T06:07:11.301Z,22.5
2018-09-20T06:08:01.955Z,22.5
2018-09-20T06:08:52.038Z,22.5
2018-09-20T06:09:42.032Z,22.5
2018-09-20T06:10:32.630Z,22.4
2018-09-20T06:11:21.948Z,22.5
2018-09-20T06:12:12.563Z,22.5
2018-09-20T06:13:01.713Z,22.5
2018-09-20T06:13:51.918Z,22.5
2018-09-20T06:14:42.720Z,22.5
2018-09-20T06:15:31.889Z,22.5
2018-09-20T06:16:22.614Z,22.5
2018-09-20T06:17:12.360Z,22.5
2018-09-20T06:18:02.713Z,22.5
2018-09-20T06:18:52.466Z,22.5
2018-09-20T06:19:42.180Z,22.5
2018-09-20T06:20:31.922Z,22.5
2018-09-20T06:21:22.005Z,22.6
2018-09-20T06:22:12.752Z,22.6
2018-09-20T06:23:02.480Z,22.5
2018-09-20T06:23:53.051Z,22.6
2018-09-20T06:24:43.177Z,22.5
2018-09-20T06:25:32.780Z,22.5
2018-09-20T06:26:23.529Z,22.6
2018-09-20T06:27:13.375Z,22.6
2018-09-20T06:28:03.718Z,22.5
2018-09-20T06:28:53.217Z,22.6
2018-09-20T06:29:43.159Z,22.6
2018-09-20T06:30:33.121Z,22.6
2018-09-20T06:31:23.433Z,22.6
2018-09-20T06:32:12.958Z,22.5
2018-09-20T06:33:03.587Z,22.6
2018-09-20T06:33:53.847Z,22.6
2018-09-20T06:34:43.580Z,22.6
2018-09-20T06:35:34.065Z,22.6
2018-09-20T06:36:23.255Z,22.6
2018-09-20T06:37:14.167Z,22.6
2018-09-20T06:38:04.196Z,22.6
2018-09-20T06:38:54.220Z,22.6
2018-09-20T06:39:44.069Z,22.6
2018-09-20T06:40:34.187Z,22.6
2018-09-20T06:41:24.198Z,22.6
2018-09-20T06:42:13.227Z,22.6
2018-09-20T06:43:04.529Z,22.6
2018-09-20T06:43:54.049Z,22.6
2018-09-20T06:44:44.694Z,22.6
2018-09-20T06:45:33.243Z,22.6
2018-09-20T06:46:25.156Z,22.6
2018-09-20T06:47:15.126Z,22.6
2018-09-20T06:48:04.706Z,22.6
2018-09-20T06:48:55.088Z,22.6
2018-09-20T06:49:45.558Z,22.6
2018-09-20T06:50:35.707Z,22.6
2018-09-20T06:51:25.786Z,22.6
2018-09-20T06:52:15.606Z,22.6
2018-09-20T06:53:05.105Z,22.6
2018-09-20T06:53:55.066Z,22.6
2018-09-20T06:54:44.788Z,22.6
2018-09-20T06:55:35.554Z,22.6
2018-09-20T06:56:25.743Z,22.6
2018-09-20T06:57:14.737Z,22.6
2018-09-20T06:58:05.941Z,22.6
2018-09-20T06:58:55.498Z,22.6
2018-09-20T06:59:45.516Z,22.6
2018-09-20T07:00:34.978Z,22.6
2018-09-20T07:01:25.293Z,22.6
2018-09-20T07:02:15.488Z,22.6
2018-09-20T07:03:07.195Z,22.6
2018-09-20T07:03:54.733Z,22.6
2018-09-20T07:04:45.068Z,22.6
2018-09-20T07:05:36.339Z,22.6
2018-09-20T07:06:25.605Z,22.6
2018-09-20T07:07:15.795Z,22.7
2018-09-20T07:08:06.253Z,22.6
2018-09-20T07:08:56.277Z,22.7
2018-09-20T07:09:46.820Z,22.7
2018-09-20T07:10:36.628Z,22.7
2018-09-20T07:11:26.980Z,22.6
2018-09-20T07:12:16.825Z,22.7
2018-09-20T07:13:06.490Z,22.7
2018-09-20T07:13:57.265Z,22.7
2018-09-20T07:14:46.405Z,22.7
2018-09-20T07:15:35.932Z,22.7
2018-09-20T07:16:26.637Z,22.7
2018-09-20T07:17:17.224Z,22.7
2018-09-20T07:18:08.020Z,22.7
2018-09-20T07:18:57.720Z,22.7
2018-09-20T07:19:46.333Z,22.7
2018-09-20T07:20:37.515Z,22.7
2018-09-20T07:21:27.278Z,22.7
2018-09-20T07:22:17.218Z,22.7
2018-09-20T07:23:06.733Z,22.8
2018-09-20T07:23:57.924Z,22.7
2018-09-20T07:24:47.517Z,22.7
2018-09-20T07:25:38.977Z,22.7
2018-09-20T07:26:27.189Z,22.8
2018-09-20T07:27:18.188Z,22.7
2018-09-20T07:28:07.662Z,22.8
2018-09-20T07:28:57.735Z,22.7
2018-09-20T07:29:48.406Z,22.8
2018-09-20T07:30:38.388Z,22.8
2018-09-20T07:31:27.483Z,22.8
2018-09-20T07:32:17.929Z,22.7
2018-09-20T07:33:08.026Z,22.7
2018-09-20T07:33:58.303Z,22.8
2018-09-20T07:34:48.441Z,22.7
2018-09-20T07:35:38.749Z,22.7
2018-09-20T07:36:28.320Z,22.7
2018-09-20T07:37:18.790Z,22.7
2018-09-20T07:38:07.976Z,22.8
2018-09-20T07:38:57.908Z,22.7
2018-09-20T07:39:48.694Z,22.8
2018-09-20T07:40:38.076Z,22.8
2018-09-20T07:41:28.605Z,22.8
2018-09-20T07:42:19.235Z,22.8
2018-09-20T07:43:08.968Z,22.7
2018-09-20T07:43:58.260Z,22.8
2018-09-20T07:44:49.407Z,22.8
2018-09-20T07:45:38.930Z,22.8
2018-09-20T07:46:28.128Z,22.8
2018-09-20T07:47:19.478Z,22.8
2018-09-20T07:48:08.817Z,22.8
2018-09-20T07:48:59.417Z,22.8
2018-09-20T07:49:48.763Z,22.8
2018-09-20T07:50:39.267Z,22.8
2018-09-20T07:51:29.333Z,22.8
2018-09-20T07:52:19.935Z,22.8
2018-09-20T07:53:09.193Z,22.8
2018-09-20T07:54:00.780Z,22.8
2018-09-20T07:54:49.940Z,22.8
2018-09-20T07:55:40.007Z,22.8
2018-09-20T07:56:29.853Z,22.8
2018-09-20T07:57:20.207Z,22.8
2018-09-20T07:58:09.847Z,22.8
2018-09-20T07:58:59.567Z,22.8
2018-09-20T07:59:50.808Z,22.8
2018-09-20T08:00:39.842Z,22.8
2018-09-20T08:01:29.417Z,22.8
2018-09-20T08:02:20.161Z,22.8
2018-09-20T08:03:11.302Z,22.8
2018-09-20T08:04:01.974Z,22.8
2018-09-20T08:04:51.724Z,22.8
2018-09-20T08:05:41.733Z,22.8
2018-09-20T08:06:31.108Z,22.8
2018-09-20T08:07:22.491Z,22.8
2018-09-20T08:08:10.961Z,22.8
2018-09-20T08:09:00.941Z,22.8
2018-09-20T08:09:50.220Z,22.8
2018-09-20T08:10:40.426Z,22.8
2018-09-20T08:11:31.142Z,22.8
2018-09-20T08:12:21.225Z,22.8
2018-09-20T08:13:12.298Z,22.8
2018-09-20T08:14:01.309Z,22.8
2018-09-20T08:14:50.881Z,22.8
2018-09-20T08:15:41.248Z,22.8
2018-09-20T08:16:30.748Z,22.8
2018-09-20T08:17:21.813Z,22.8
2018-09-20T08:18:11.056Z,22.8
2018-09-20T08:19:04.388Z,22.8
2018-09-20T08:19:50.923Z,22.8
2018-09-20T08:20:41.645Z,22.8
2018-09-20T08:21:32.558Z,22.8
2018-09-20T08:22:21.392Z,22.8
2018-09-20T08:23:11.418Z,22.8
2018-09-20T08:24:02.246Z,22.8
2018-09-20T08:24:51.900Z,22.8
2018-09-20T08:25:42.328Z,22.8
2018-09-20T08:26:31.388Z,22.8
2018-09-20T08:27:22.143Z,22.8
2018-09-20T08:28:12.933Z,22.8
2018-09-20T08:29:02.803Z,22.8
2018-09-20T08:29:52.265Z,22.8
2018-09-20T08:30:41.700Z,22.8
2018-09-20T08:31:32.932Z,22.8
2018-09-20T08:32:23.067Z,22.8
2018-09-20T08:33:12.764Z,22.8
2018-09-20T08:34:03.053Z,22.8
2018-09-20T08:34:52.892Z,22.8
2018-09-20T08:35:42.119Z,22.8
2018-09-20T08:36:33.117Z,22.8
2018-09-20T08:37:23.755Z,22.8
2018-09-20T08:38:12.884Z,22.8
2018-09-20T08:39:02.701Z,22.8
2018-09-20T08:39:52.946Z,22.8
2018-09-20T08:40:43.324Z,22.8
2018-09-20T08:41:33.072Z,22.8
2018-09-20T08:42:24.724Z,22.8
2018-09-20T08:43:12.691Z,22.8
2018-09-20T08:44:03.417Z,22.8
2018-09-20T08:44:53.804Z,22.9
2018-09-20T08:45:43.453Z,22.8
2018-09-20T08:46:32.886Z,22.8
2018-09-20T08:47:23.804Z,22.8
2018-09-20T08:48:15.715Z,22.9
2018-09-20T08:49:03.183Z,22.8
2018-09-20T08:49:53.581Z,22.8
2018-09-20T08:50:44.010Z,22.8
2018-09-20T08:51:33.995Z,22.8
2018-09-20T08:52:24.436Z,22.8
2018-09-20T08:53:13.823Z,22.8
2018-09-20T08:54:04.736Z,22.8
2018-09-20T08:54:54.943Z,22.8
2018-09-20T08:55:44.486Z,22.8
2018-09-20T08:56:34.915Z,22.8
2018-09-20T08:57:25.558Z,22.8
2018-09-20T08:58:14.406Z,22.8
2018-09-20T08:59:04.430Z,22.9
2018-09-20T08:59:54.550Z,22.8
2018-09-20T09:00:43.778Z,22.9
2018-09-20T09:01:34.620Z,22.9
2018-09-20T09:02:24.871Z,22.9
2018-09-20T09:03:15.044Z,22.9
2018-09-20T09:04:04.781Z,22.9
2018-09-20T09:04:54.873Z,22.8
2018-09-20T09:05:45.310Z,22.9
2018-09-20T09:06:34.992Z,22.9
2018-09-20T09:07:25.420Z,22.8
2018-09-20T09:08:15.145Z,22.9
2018-09-20T09:09:05.745Z,22.9
2018-09-20T09:09:55.906Z,22.9
2018-09-20T09:10:45.352Z,22.9
2018-09-20T09:11:35.467Z,22.9
2018-09-20T09:12:25.733Z,22.9
2018-09-20T09:13:15.760Z,22.9
2018-09-20T09:14:05.822Z,22.9
2018-09-20T09:14:55.887Z,22.9
2018-09-20T09:15:45.992Z,22.9
2018-09-20T09:16:36.116Z,22.9
2018-09-20T09:17:25.849Z,22.9
2018-09-20T09:18:16.457Z,22.9
2018-09-20T09:19:05.694Z,22.9
2018-09-20T09:19:56.374Z,22.9
2018-09-20T09:20:46.144Z,22.9
2018-09-20T09:21:35.590Z,22.9
2018-09-20T09:22:26.245Z,22.9
2018-09-20T09:23:16.592Z,22.9
2018-09-20T09:40:09.170Z,22.8
2018-09-20T09:40:57.668Z,22.9
2018-09-20T09:41:49.248Z,22.9
2018-09-20T09:42:38.552Z,22.9
2018-09-20T09:43:29.238Z,22.9
2018-09-20T09:44:19.333Z,22.9
2018-09-20T09:45:09.851Z,22.9
2018-09-20T09:45:59.048Z,22.9
2018-09-20T09:46:48.380Z,22.9
2018-09-20T09:47:38.363Z,22.9
2018-09-20T09:48:29.580Z,22.9
2018-09-20T09:49:19.594Z,22.9
2018-09-20T09:50:09.630Z,22.9
2018-09-20T09:50:59.255Z,22.9
2018-09-20T09:51:49.231Z,22.9
2018-09-20T09:52:40.165Z,22.9
2018-09-20T09:53:30.255Z,22.9
2018-09-20T09:54:20.431Z,22.9
2018-09-20T09:55:10.387Z,22.9
2018-09-20T09:55:59.554Z,22.9
2018-09-20T09:56:49.917Z,22.9
2018-09-20T09:57:40.222Z,22.9
2018-09-20T09:58:30.022Z,22.9
2018-09-20T09:59:20.645Z,22.9
2018-09-20T10:00:10.459Z,22.9
2018-09-20T10:01:00.544Z,22.9
2018-09-20T10:01:49.712Z,22.9
2018-09-20T10:02:43.006Z,22.9
2018-09-20T10:03:30.701Z,22.9
2018-09-20T10:04:20.246Z,23
2018-09-20T10:05:10.294Z,22.9
2018-09-20T10:06:00.699Z,22.9
2018-09-20T10:06:50.493Z,22.9
2018-09-20T10:07:39.096Z,22.9
2018-09-20T10:08:30.771Z,22.9
2018-09-20T10:09:21.184Z,22.9
2018-09-20T10:10:11.289Z,22.9
2018-09-20T10:11:01.564Z,22.9
2018-09-20T10:11:51.350Z,22.9
2018-09-20T10:12:40.532Z,23
2018-09-20T10:13:33.918Z,22.9
2018-09-20T10:14:21.019Z,22.9
2018-09-20T10:15:09.998Z,22.9
2018-09-20T10:16:01.896Z,22.9
2018-09-20T10:16:51.178Z,22.9
2018-09-20T10:17:40.923Z,23
2018-09-20T10:18:31.271Z,22.9
2018-09-20T10:19:22.449Z,22.9
2018-09-20T10:20:12.753Z,23
2018-09-20T10:21:02.334Z,22.9
2018-09-20T10:21:51.585Z,22.9
2018-09-20T10:22:42.441Z,22.9
2018-09-20T10:23:31.655Z,23
2018-09-20T10:24:22.628Z,23
2018-09-20T10:25:12.381Z,22.9
2018-09-20T10:26:02.503Z,22.9
2018-09-20T10:26:52.505Z,22.9
2018-09-20T10:27:42.266Z,22.9
2018-09-20T10:28:32.630Z,22.9
2018-09-20T10:29:22.728Z,22.9
2018-09-20T10:30:12.749Z,22.9
2018-09-20T10:31:02.962Z,23
2018-09-20T10:31:52.383Z,22.9
2018-09-20T10:32:42.993Z,22.9
2018-09-20T10:33:32.721Z,23
2018-09-20T10:34:21.916Z,22.9
2018-09-20T10:35:12.095Z,23
2018-09-20T10:36:02.692Z,22.9
2018-09-20T10:36:53.215Z,23
2018-09-20T10:37:43.042Z,23
2018-09-20T10:38:33.398Z,22.9
2018-09-20T10:39:22.613Z,23
2018-09-20T10:40:13.490Z,23
2018-09-20T10:41:02.674Z,22.9
2018-09-20T10:41:53.289Z,22.9
2018-09-20T10:42:43.395Z,22.9
2018-09-20T10:43:33.472Z,23
2018-09-20T10:44:24.095Z,23
2018-09-20T10:45:13.937Z,23
2018-09-20T10:46:04.492Z,22.9
2018-09-20T10:46:53.484Z,23
2018-09-20T10:47:44.413Z,23
2018-09-20T10:48:33.275Z,23
2018-09-20T10:49:23.373Z,23
2018-09-20T10:50:13.755Z,23
2018-09-20T10:51:04.376Z,22.9
2018-09-20T10:51:54.440Z,23
2018-09-20T10:52:44.150Z,22.9
2018-09-20T10:53:34.791Z,23
2018-09-20T10:54:24.966Z,23
2018-09-20T10:55:14.047Z,22.9
2018-09-20T10:56:03.284Z,23
2018-09-20T10:56:54.821Z,23
2018-09-20T10:57:44.504Z,22.9
2018-09-20T10:58:34.569Z,22.9
2018-09-20T10:59:24.376Z,23
2018-09-20T11:00:15.389Z,23
2018-09-20T11:01:04.449Z,23
2018-09-20T11:01:54.884Z,23
2018-09-20T11:02:45.298Z,23
2018-09-20T11:03:35.939Z,23
2018-09-20T11:04:25.312Z,23
2018-09-20T11:05:15.389Z,23
2018-09-20T11:06:05.992Z,23
2018-09-20T11:06:54.661Z,23
2018-09-20T11:07:45.044Z,23
2018-09-20T11:08:35.663Z,23.1
2018-09-20T11:09:25.419Z,23
2018-09-20T11:10:15.575Z,23.1
2018-09-20T11:11:07.986Z,23.1
2018-09-20T11:11:55.921Z,23.1
2018-09-20T11:12:46.473Z,23.1
2018-09-20T11:13:35.771Z,23
2018-09-20T11:14:25.783Z,23.1
2018-09-20T11:15:16.126Z,23.1
2018-09-20T11:16:06.588Z,23.1
2018-09-20T11:16:55.790Z,23
2018-09-20T11:17:46.013Z,23.1
2018-09-20T11:18:36.908Z,23.1
2018-09-20T11:19:26.160Z,23
2018-09-20T11:20:16.087Z,23.1
2018-09-20T11:21:06.342Z,23.1
2018-09-20T11:21:57.001Z,23.1
2018-09-20T11:22:46.452Z,23.1
2018-09-20T11:23:36.202Z,23.1
2018-09-20T11:24:26.860Z,23.1
2018-09-20T11:25:17.177Z,23.1
2018-09-20T11:26:08.677Z,23.1
2018-09-20T11:26:57.035Z,23.1
2018-09-20T11:27:47.465Z,23.1
2018-09-20T11:28:36.850Z,23.1
2018-09-20T11:29:27.732Z,23.1
2018-09-20T11:30:17.311Z,23.1
2018-09-20T11:31:07.632Z,23.1
2018-09-20T11:31:57.422Z,23.1
2018-09-20T11:32:47.455Z,23.1
2018-09-20T11:33:37.557Z,23.1
2018-09-20T11:34:27.673Z,23.1
2018-09-20T11:35:17.942Z,23.1
2018-09-20T11:36:07.559Z,23.1
2018-09-20T11:36:57.265Z,23.1
2018-09-20T11:37:48.444Z,23.1
2018-09-20T11:38:37.611Z,23.1
2018-09-20T11:39:27.426Z,23.1
2018-09-20T11:40:17.304Z,23.1
2018-09-20T11:41:07.849Z,23.1
2018-09-20T11:41:58.311Z,23.2
2018-09-20T11:42:48.224Z,23.1
2018-09-20T11:43:39.049Z,23.1
2018-09-20T11:44:28.712Z,23.1
2018-09-20T11:45:18.261Z,23.1
2018-09-20T11:46:08.579Z,23.1
2018-09-20T11:46:58.628Z,23.1
2018-09-20T11:47:48.883Z,23.1
2018-09-20T11:48:37.569Z,23.1
2018-09-20T16:40:44.803Z,23.4
2018-09-20T16:41:35.118Z,23.5
2018-09-20T16:42:24.138Z,23.4
2018-09-20T16:43:13.627Z,23.4
2018-09-20T16:44:04.318Z,23.4
2018-09-20T16:44:54.232Z,23.4
2018-09-20T16:45:45.197Z,23.4
2018-09-20T16:46:35.172Z,23.4
2018-09-20T16:47:24.979Z,23.4
2018-09-20T16:48:15.363Z,23.4
2018-09-20T16:49:05.693Z,23.4
2018-09-20T16:49:54.927Z,23.4
2018-09-20T16:50:45.542Z,23.4
2018-09-20T16:51:35.569Z,23.4
2018-09-20T16:52:25.661Z,23.4
2018-09-20T16:53:18.907Z,23.4
2018-09-20T16:54:05.032Z,23.4
2018-09-20T16:54:55.599Z,23.4
2018-09-20T16:55:44.821Z,23.4
2018-09-20T16:56:35.430Z,23.4
2018-09-20T16:57:25.154Z,23.4
2018-09-20T16:58:16.082Z,23.4
2018-09-20T16:59:06.110Z,23.4
2018-09-20T16:59:56.250Z,23.4
2018-09-20T17:00:45.183Z,23.4
2018-09-20T17:01:36.459Z,23.4
2018-09-20T17:02:25.930Z,23.4
2018-09-20T17:03:16.205Z,23.4
2018-09-20T17:04:05.962Z,23.4
2018-09-20T17:04:55.764Z,23.4
2018-09-20T17:05:46.132Z,23.3
2018-09-20T17:06:36.259Z,23.4
2018-09-20T17:07:26.746Z,23.4
2018-09-20T17:08:16.286Z,23.4
2018-09-20T17:09:06.597Z,23.4
2018-09-20T17:09:56.983Z,23.4
2018-09-20T17:10:47.124Z,23.4
2018-09-20T17:11:36.694Z,23.4
2018-09-20T17:12:26.471Z,23.3
2018-09-20T17:13:17.355Z,23.3
2018-09-20T17:14:07.113Z,23.3
2018-09-20T17:15:00.550Z,23.3
2018-09-20T17:15:46.921Z,23.3
2018-09-20T17:16:38.163Z,23.4
2018-09-20T17:17:26.775Z,23.4
2018-09-20T17:18:17.697Z,23.3
2018-09-20T17:19:07.755Z,23.3
2018-09-20T17:19:58.274Z,23.3
2018-09-20T17:20:46.453Z,23.3
2018-09-20T17:21:37.932Z,23.3
2018-09-20T17:22:27.415Z,23.3
2018-09-20T17:23:17.435Z,23.3
2018-09-20T17:24:08.418Z,23.3
2018-09-20T17:24:57.815Z,23.3
2018-09-20T17:25:47.924Z,23.3
2018-09-20T17:26:38.496Z,23.3
2018-09-20T17:27:28.023Z,23.3
2018-09-20T17:28:17.567Z,23.3
2018-09-20T17:29:08.730Z,23.3
2018-09-20T17:29:58.524Z,23.3
2018-09-20T17:30:48.282Z,23.3
2018-09-20T17:31:38.660Z,23.3
2018-09-20T17:32:29.048Z,23.3
2018-09-20T17:33:18.235Z,23.3